sensor_id;sensor_type;location;lat;lon;timestamp;P1;durP1;ratioP1;P2;durP2;ratioP2
38117;SDS011;23928;47.562;7.508;2023-03-01T00:02:02;28.13;;;16.10;;
38117;SDS011;23928;47.562;7.508;2023-03-01T00:04:27;25.60;;;15.07;;
38117;SDS011;23928;47.562;7.508;2023-03-01T00:06:53;24.13;;;15.70;;
38117;SDS011;23928;47.562;7.508;2023-03-01T00:09:19;28.07;;;15.93;;
38117;SDS011;23928;47.562;7.508;2023-03-01T00:11:45;27.20;;;15.83;;
38117;SDS011;23928;47.562;7.508;2023-03-01T00:14:11;26.97;;;16.27;;
38117;SDS011;23928;47.562;7.508;2023-03-01T00:16:37;27.20;;;14.57;;
38117;SDS011;23928;47.562;7.508;2023-03-01T00:19:05;27.37;;;16.00;;
38117;SDS011;23928;47.562;7.508;2023-03-01T00:21:41;24.97;;;15.80;;
38117;SDS011;23928;47.562;7.508;2023-03-01T00:24:07;25.03;;;15.63;;
38117;SDS011;23928;47.562;7.508;2023-03-01T00:26:33;25.37;;;15.60;;
38117;SDS011;23928;47.562;7.508;2023-03-01T00:28:59;25.30;;;15.00;;
38117;SDS011;23928;47.562;7.508;2023-03-01T00:31:26;27.70;;;16.37;;
38117;SDS011;23928;47.562;7.508;2023-03-01T00:33:57;28.60;;;16.27;;
38117;SDS011;23928;47.562;7.508;2023-03-01T00:36:29;26.47;;;15.37;;
38117;SDS011;23928;47.562;7.508;2023-03-01T00:39:02;32.03;;;17.27;;
38117;SDS011;23928;47.562;7.508;2023-03-01T00:41:29;27.23;;;15.70;;
38117;SDS011;23928;47.562;7.508;2023-03-01T00:43:54;27.37;;;16.70;;
38117;SDS011;23928;47.562;7.508;2023-03-01T00:46:23;27.67;;;17.03;;
38117;SDS011;23928;47.562;7.508;2023-03-01T00:48:49;26.97;;;15.73;;
38117;SDS011;23928;47.562;7.508;2023-03-01T00:51:16;27.00;;;15.70;;
38117;SDS011;23928;47.562;7.508;2023-03-01T00:53:44;27.63;;;15.97;;
38117;SDS011;23928;47.562;7.508;2023-03-01T00:56:11;25.80;;;15.37;;
38117;SDS011;23928;47.562;7.508;2023-03-01T00:58:37;24.07;;;15.67;;
38117;SDS011;23928;47.562;7.508;2023-03-01T01:01:07;26.57;;;15.30;;
38117;SDS011;23928;47.562;7.508;2023-03-01T01:03:46;27.83;;;15.53;;
38117;SDS011;23928;47.562;7.508;2023-03-01T01:06:14;22.67;;;14.50;;
38117;SDS011;23928;47.562;7.508;2023-03-01T01:08:40;23.87;;;15.17;;
38117;SDS011;23928;47.562;7.508;2023-03-01T01:11:08;28.17;;;15.40;;
38117;SDS011;23928;47.562;7.508;2023-03-01T01:13:34;26.50;;;15.77;;
38117;SDS011;23928;47.562;7.508;2023-03-01T01:16:00;26.07;;;15.30;;
38117;SDS011;23928;47.562;7.508;2023-03-01T01:18:26;26.07;;;16.30;;
38117;SDS011;23928;47.562;7.508;2023-03-01T01:20:52;25.33;;;15.47;;
38117;SDS011;23928;47.562;7.508;2023-03-01T01:23:17;27.27;;;14.47;;
38117;SDS011;23928;47.562;7.508;2023-03-01T01:25:43;26.37;;;14.97;;
38117;SDS011;23928;47.562;7.508;2023-03-01T01:28:08;24.27;;;14.53;;
38117;SDS011;23928;47.562;7.508;2023-03-01T01:30:34;29.17;;;15.47;;
38117;SDS011;23928;47.562;7.508;2023-03-01T01:32:59;24.13;;;14.53;;
38117;SDS011;23928;47.562;7.508;2023-03-01T01:35:25;22.60;;;14.10;;
38117;SDS011;23928;47.562;7.508;2023-03-01T01:37:50;24.27;;;15.10;;
38117;SDS011;23928;47.562;7.508;2023-03-01T01:40:16;28.73;;;15.90;;
38117;SDS011;23928;47.562;7.508;2023-03-01T01:42:42;26.43;;;15.53;;
38117;SDS011;23928;47.562;7.508;2023-03-01T01:47:53;27.97;;;15.43;;
38117;SDS011;23928;47.562;7.508;2023-03-01T01:50:22;23.60;;;14.60;;
38117;SDS011;23928;47.562;7.508;2023-03-01T01:52:48;26.93;;;15.27;;
38117;SDS011;23928;47.562;7.508;2023-03-01T01:55:17;28.37;;;15.40;;
38117;SDS011;23928;47.562;7.508;2023-03-01T01:57:53;25.93;;;14.97;;
38117;SDS011;23928;47.562;7.508;2023-03-01T02:00:25;26.20;;;14.30;;
38117;SDS011;23928;47.562;7.508;2023-03-01T02:03:03;26.13;;;14.53;;
38117;SDS011;23928;47.562;7.508;2023-03-01T02:08:01;27.57;;;15.30;;
38117;SDS011;23928;47.562;7.508;2023-03-01T02:10:27;26.23;;;15.63;;
38117;SDS011;23928;47.562;7.508;2023-03-01T02:12:54;25.80;;;15.63;;
38117;SDS011;23928;47.562;7.508;2023-03-01T02:15:21;25.27;;;15.53;;
38117;SDS011;23928;47.562;7.508;2023-03-01T02:17:48;26.77;;;15.70;;
38117;SDS011;23928;47.562;7.508;2023-03-01T02:20:26;26.77;;;15.33;;
38117;SDS011;23928;47.562;7.508;2023-03-01T02:23:11;27.57;;;16.17;;
38117;SDS011;23928;47.562;7.508;2023-03-01T02:31:04;27.40;;;14.60;;
38117;SDS011;23928;47.562;7.508;2023-03-01T02:33:51;26.47;;;16.13;;
38117;SDS011;23928;47.562;7.508;2023-03-01T02:36:31;27.00;;;15.27;;
38117;SDS011;23928;47.562;7.508;2023-03-01T02:39:03;24.57;;;14.17;;
38117;SDS011;23928;47.562;7.508;2023-03-01T02:41:31;26.43;;;14.60;;
38117;SDS011;23928;47.562;7.508;2023-03-01T02:44:02;25.43;;;15.23;;
38117;SDS011;23928;47.562;7.508;2023-03-01T02:46:29;23.37;;;14.73;;
38117;SDS011;23928;47.562;7.508;2023-03-01T02:48:55;28.30;;;15.37;;
38117;SDS011;23928;47.562;7.508;2023-03-01T02:56:22;28.23;;;15.57;;
38117;SDS011;23928;47.562;7.508;2023-03-01T02:58:47;27.80;;;15.87;;
38117;SDS011;23928;47.562;7.508;2023-03-01T03:01:16;25.47;;;14.63;;
38117;SDS011;23928;47.562;7.508;2023-03-01T03:03:43;27.53;;;16.60;;
38117;SDS011;23928;47.562;7.508;2023-03-01T03:06:09;24.30;;;14.80;;
38117;SDS011;23928;47.562;7.508;2023-03-01T03:08:34;24.77;;;13.80;;
38117;SDS011;23928;47.562;7.508;2023-03-01T03:11:00;26.43;;;14.87;;
38117;SDS011;23928;47.562;7.508;2023-03-01T03:13:26;26.47;;;14.47;;
38117;SDS011;23928;47.562;7.508;2023-03-01T03:15:53;28.93;;;13.90;;
38117;SDS011;23928;47.562;7.508;2023-03-01T03:18:20;25.30;;;13.70;;
38117;SDS011;23928;47.562;7.508;2023-03-01T03:20:47;28.10;;;14.43;;
38117;SDS011;23928;47.562;7.508;2023-03-01T03:23:17;25.03;;;14.63;;
38117;SDS011;23928;47.562;7.508;2023-03-01T03:25:44;26.03;;;14.03;;
38117;SDS011;23928;47.562;7.508;2023-03-01T03:28:12;26.40;;;13.73;;
38117;SDS011;23928;47.562;7.508;2023-03-01T03:30:39;27.73;;;14.20;;
38117;SDS011;23928;47.562;7.508;2023-03-01T03:33:06;25.47;;;14.27;;
38117;SDS011;23928;47.562;7.508;2023-03-01T03:35:33;27.10;;;14.73;;
38117;SDS011;23928;47.562;7.508;2023-03-01T03:38:05;25.10;;;14.27;;
38117;SDS011;23928;47.562;7.508;2023-03-01T03:40:40;25.43;;;14.10;;
38117;SDS011;23928;47.562;7.508;2023-03-01T03:43:09;25.53;;;14.87;;
38117;SDS011;23928;47.562;7.508;2023-03-01T03:45:37;25.97;;;14.07;;
38117;SDS011;23928;47.562;7.508;2023-03-01T03:48:04;29.63;;;14.60;;
38117;SDS011;23928;47.562;7.508;2023-03-01T03:50:31;29.03;;;14.70;;
38117;SDS011;23928;47.562;7.508;2023-03-01T03:52:57;28.23;;;14.97;;
38117;SDS011;23928;47.562;7.508;2023-03-01T03:55:26;28.77;;;14.97;;
38117;SDS011;23928;47.562;7.508;2023-03-01T03:57:56;25.47;;;14.37;;
38117;SDS011;23928;47.562;7.508;2023-03-01T04:00:23;26.80;;;15.20;;
38117;SDS011;23928;47.562;7.508;2023-03-01T04:02:49;23.77;;;13.27;;
38117;SDS011;23928;47.562;7.508;2023-03-01T04:05:16;24.23;;;13.30;;
38117;SDS011;23928;47.562;7.508;2023-03-01T04:07:43;28.47;;;13.83;;
38117;SDS011;23928;47.562;7.508;2023-03-01T04:10:14;27.43;;;14.37;;
38117;SDS011;23928;47.562;7.508;2023-03-01T04:12:41;24.03;;;13.77;;
38117;SDS011;23928;47.562;7.508;2023-03-01T04:15:08;25.00;;;13.83;;
38117;SDS011;23928;47.562;7.508;2023-03-01T04:17:41;29.50;;;15.37;;
38117;SDS011;23928;47.562;7.508;2023-03-01T04:20:08;24.67;;;13.70;;
38117;SDS011;23928;47.562;7.508;2023-03-01T04:22:38;24.80;;;13.37;;
38117;SDS011;23928;47.562;7.508;2023-03-01T04:25:05;28.60;;;14.00;;
38117;SDS011;23928;47.562;7.508;2023-03-01T04:27:34;28.03;;;14.17;;
38117;SDS011;23928;47.562;7.508;2023-03-01T04:30:02;24.77;;;12.93;;
38117;SDS011;23928;47.562;7.508;2023-03-01T04:32:28;25.37;;;13.90;;
38117;SDS011;23928;47.562;7.508;2023-03-01T04:34:54;24.87;;;13.80;;
38117;SDS011;23928;47.562;7.508;2023-03-01T04:37:19;26.43;;;13.77;;
38117;SDS011;23928;47.562;7.508;2023-03-01T04:39:45;26.33;;;14.10;;
38117;SDS011;23928;47.562;7.508;2023-03-01T04:42:12;23.77;;;14.77;;
38117;SDS011;23928;47.562;7.508;2023-03-01T04:44:38;26.40;;;13.60;;
38117;SDS011;23928;47.562;7.508;2023-03-01T04:47:03;23.77;;;13.33;;
38117;SDS011;23928;47.562;7.508;2023-03-01T04:49:29;25.70;;;13.90;;
38117;SDS011;23928;47.562;7.508;2023-03-01T04:51:55;26.23;;;13.63;;
38117;SDS011;23928;47.562;7.508;2023-03-01T04:54:23;23.73;;;13.33;;
38117;SDS011;23928;47.562;7.508;2023-03-01T04:56:48;23.43;;;13.43;;
38117;SDS011;23928;47.562;7.508;2023-03-01T04:59:14;26.67;;;13.67;;
38117;SDS011;23928;47.562;7.508;2023-03-01T05:01:40;23.93;;;12.77;;
38117;SDS011;23928;47.562;7.508;2023-03-01T05:04:07;25.23;;;14.00;;
38117;SDS011;23928;47.562;7.508;2023-03-01T05:06:37;25.17;;;14.40;;
38117;SDS011;23928;47.562;7.508;2023-03-01T05:09:04;29.37;;;14.93;;
38117;SDS011;23928;47.562;7.508;2023-03-01T05:11:30;24.83;;;14.27;;
38117;SDS011;23928;47.562;7.508;2023-03-01T05:14:00;25.30;;;13.97;;
38117;SDS011;23928;47.562;7.508;2023-03-01T05:16:32;24.07;;;13.30;;
38117;SDS011;23928;47.562;7.508;2023-03-01T05:18:59;27.13;;;13.43;;
38117;SDS011;23928;47.562;7.508;2023-03-01T05:21:24;26.57;;;14.17;;
38117;SDS011;23928;47.562;7.508;2023-03-01T05:23:50;25.07;;;13.30;;
38117;SDS011;23928;47.562;7.508;2023-03-01T05:26:17;28.13;;;13.53;;
38117;SDS011;23928;47.562;7.508;2023-03-01T05:28:44;27.90;;;13.53;;
38117;SDS011;23928;47.562;7.508;2023-03-01T05:31:09;26.30;;;14.57;;
38117;SDS011;23928;47.562;7.508;2023-03-01T05:33:38;25.53;;;13.93;;
38117;SDS011;23928;47.562;7.508;2023-03-01T05:36:05;23.93;;;14.23;;
38117;SDS011;23928;47.562;7.508;2023-03-01T05:38:33;24.30;;;13.83;;
38117;SDS011;23928;47.562;7.508;2023-03-01T05:40:58;25.20;;;13.83;;
38117;SDS011;23928;47.562;7.508;2023-03-01T05:43:24;26.90;;;13.87;;
38117;SDS011;23928;47.562;7.508;2023-03-01T05:45:50;24.20;;;13.33;;
38117;SDS011;23928;47.562;7.508;2023-03-01T05:48:16;23.53;;;12.93;;
38117;SDS011;23928;47.562;7.508;2023-03-01T05:50:44;25.50;;;13.93;;
38117;SDS011;23928;47.562;7.508;2023-03-01T05:55:42;25.33;;;14.27;;
38117;SDS011;23928;47.562;7.508;2023-03-01T05:58:27;25.97;;;14.57;;
38117;SDS011;23928;47.562;7.508;2023-03-01T06:00:52;26.80;;;14.13;;
38117;SDS011;23928;47.562;7.508;2023-03-01T06:03:18;25.40;;;13.60;;
38117;SDS011;23928;47.562;7.508;2023-03-01T06:05:44;24.40;;;13.87;;
38117;SDS011;23928;47.562;7.508;2023-03-01T06:08:10;26.30;;;13.27;;
38117;SDS011;23928;47.562;7.508;2023-03-01T06:10:37;23.73;;;13.27;;
38117;SDS011;23928;47.562;7.508;2023-03-01T06:13:02;30.27;;;14.00;;
38117;SDS011;23928;47.562;7.508;2023-03-01T06:15:28;24.33;;;12.60;;
38117;SDS011;23928;47.562;7.508;2023-03-01T06:17:54;26.07;;;14.80;;
38117;SDS011;23928;47.562;7.508;2023-03-01T06:20:22;25.03;;;13.03;;
38117;SDS011;23928;47.562;7.508;2023-03-01T06:22:50;25.67;;;13.57;;
38117;SDS011;23928;47.562;7.508;2023-03-01T06:25:16;25.93;;;14.17;;
38117;SDS011;23928;47.562;7.508;2023-03-01T06:27:44;25.43;;;13.30;;
38117;SDS011;23928;47.562;7.508;2023-03-01T06:30:12;27.53;;;14.80;;
38117;SDS011;23928;47.562;7.508;2023-03-01T06:32:39;24.57;;;14.03;;
38117;SDS011;23928;47.562;7.508;2023-03-01T06:35:11;24.37;;;13.53;;
38117;SDS011;23928;47.562;7.508;2023-03-01T06:37:39;27.23;;;13.50;;
38117;SDS011;23928;47.562;7.508;2023-03-01T06:40:06;22.80;;;12.80;;
38117;SDS011;23928;47.562;7.508;2023-03-01T06:42:37;25.00;;;13.47;;
38117;SDS011;23928;47.562;7.508;2023-03-01T06:45:04;23.77;;;12.93;;
38117;SDS011;23928;47.562;7.508;2023-03-01T06:47:31;29.83;;;14.00;;
38117;SDS011;23928;47.562;7.508;2023-03-01T06:49:58;23.97;;;13.53;;
38117;SDS011;23928;47.562;7.508;2023-03-01T06:52:24;27.00;;;13.57;;
38117;SDS011;23928;47.562;7.508;2023-03-01T06:54:50;28.47;;;13.87;;
38117;SDS011;23928;47.562;7.508;2023-03-01T06:57:15;27.73;;;14.37;;
38117;SDS011;23928;47.562;7.508;2023-03-01T06:59:41;26.80;;;14.47;;
38117;SDS011;23928;47.562;7.508;2023-03-01T07:02:09;32.30;;;15.67;;
38117;SDS011;23928;47.562;7.508;2023-03-01T07:04:36;27.13;;;15.17;;
38117;SDS011;23928;47.562;7.508;2023-03-01T07:07:02;27.20;;;15.07;;
38117;SDS011;23928;47.562;7.508;2023-03-01T07:09:28;24.53;;;14.27;;
38117;SDS011;23928;47.562;7.508;2023-03-01T07:11:53;31.00;;;17.20;;
38117;SDS011;23928;47.562;7.508;2023-03-01T07:14:19;27.57;;;15.50;;
38117;SDS011;23928;47.562;7.508;2023-03-01T07:16:45;27.73;;;14.87;;
38117;SDS011;23928;47.562;7.508;2023-03-01T07:19:11;29.83;;;15.57;;
38117;SDS011;23928;47.562;7.508;2023-03-01T07:21:36;26.87;;;14.63;;
38117;SDS011;23928;47.562;7.508;2023-03-01T07:24:04;28.20;;;15.83;;
38117;SDS011;23928;47.562;7.508;2023-03-01T07:26:31;24.50;;;13.83;;
38117;SDS011;23928;47.562;7.508;2023-03-01T07:28:58;26.70;;;14.87;;
38117;SDS011;23928;47.562;7.508;2023-03-01T07:31:24;25.83;;;15.53;;
38117;SDS011;23928;47.562;7.508;2023-03-01T07:33:52;29.20;;;15.20;;
38117;SDS011;23928;47.562;7.508;2023-03-01T07:36:18;25.33;;;14.33;;
38117;SDS011;23928;47.562;7.508;2023-03-01T07:38:44;22.80;;;13.90;;
38117;SDS011;23928;47.562;7.508;2023-03-01T07:41:10;27.93;;;16.10;;
38117;SDS011;23928;47.562;7.508;2023-03-01T07:43:36;27.37;;;16.40;;
38117;SDS011;23928;47.562;7.508;2023-03-01T07:46:02;29.30;;;16.70;;
38117;SDS011;23928;47.562;7.508;2023-03-01T07:48:28;30.60;;;15.33;;
38117;SDS011;23928;47.562;7.508;2023-03-01T07:50:57;27.17;;;15.07;;
38117;SDS011;23928;47.562;7.508;2023-03-01T07:53:27;27.53;;;15.10;;
38117;SDS011;23928;47.562;7.508;2023-03-01T07:56:05;31.37;;;15.00;;
38117;SDS011;23928;47.562;7.508;2023-03-01T07:58:34;27.20;;;14.90;;
38117;SDS011;23928;47.562;7.508;2023-03-01T08:01:02;30.40;;;14.77;;
38117;SDS011;23928;47.562;7.508;2023-03-01T08:03:29;26.83;;;14.93;;
38117;SDS011;23928;47.562;7.508;2023-03-01T08:05:55;29.63;;;16.17;;
38117;SDS011;23928;47.562;7.508;2023-03-01T08:08:20;26.43;;;15.53;;
38117;SDS011;23928;47.562;7.508;2023-03-01T08:10:46;24.63;;;15.03;;
38117;SDS011;23928;47.562;7.508;2023-03-01T08:13:12;32.30;;;15.73;;
38117;SDS011;23928;47.562;7.508;2023-03-01T08:15:37;27.97;;;16.20;;
38117;SDS011;23928;47.562;7.508;2023-03-01T08:18:03;27.77;;;16.03;;
38117;SDS011;23928;47.562;7.508;2023-03-01T08:20:28;29.07;;;16.03;;
38117;SDS011;23928;47.562;7.508;2023-03-01T08:22:54;29.27;;;15.63;;
38117;SDS011;23928;47.562;7.508;2023-03-01T08:25:20;28.60;;;15.83;;
38117;SDS011;23928;47.562;7.508;2023-03-01T08:27:45;28.97;;;16.00;;
38117;SDS011;23928;47.562;7.508;2023-03-01T08:30:11;27.27;;;16.50;;
38117;SDS011;23928;47.562;7.508;2023-03-01T08:32:38;28.93;;;15.10;;
38117;SDS011;23928;47.562;7.508;2023-03-01T08:35:04;28.77;;;15.40;;
38117;SDS011;23928;47.562;7.508;2023-03-01T08:37:30;25.83;;;15.30;;
38117;SDS011;23928;47.562;7.508;2023-03-01T08:39:58;24.90;;;14.33;;
38117;SDS011;23928;47.562;7.508;2023-03-01T08:42:25;28.50;;;15.53;;
38117;SDS011;23928;47.562;7.508;2023-03-01T08:44:51;30.20;;;16.37;;
38117;SDS011;23928;47.562;7.508;2023-03-01T08:47:16;25.97;;;15.50;;
38117;SDS011;23928;47.562;7.508;2023-03-01T08:49:42;27.20;;;14.57;;
38117;SDS011;23928;47.562;7.508;2023-03-01T08:52:07;26.90;;;15.77;;
38117;SDS011;23928;47.562;7.508;2023-03-01T08:54:33;27.07;;;15.03;;
38117;SDS011;23928;47.562;7.508;2023-03-01T08:57:01;27.30;;;15.43;;
38117;SDS011;23928;47.562;7.508;2023-03-01T08:59:27;28.10;;;16.13;;
38117;SDS011;23928;47.562;7.508;2023-03-01T09:01:54;28.17;;;15.53;;
38117;SDS011;23928;47.562;7.508;2023-03-01T09:04:20;27.27;;;15.07;;
38117;SDS011;23928;47.562;7.508;2023-03-01T09:06:45;26.93;;;14.33;;
38117;SDS011;23928;47.562;7.508;2023-03-01T09:09:15;25.70;;;15.30;;
38117;SDS011;23928;47.562;7.508;2023-03-01T09:11:42;24.40;;;14.27;;
38117;SDS011;23928;47.562;7.508;2023-03-01T09:14:08;29.63;;;16.13;;
38117;SDS011;23928;47.562;7.508;2023-03-01T09:16:34;28.13;;;15.37;;
38117;SDS011;23928;47.562;7.508;2023-03-01T09:19:00;37.90;;;14.97;;
38117;SDS011;23928;47.562;7.508;2023-03-01T09:21:26;28.17;;;15.33;;
38117;SDS011;23928;47.562;7.508;2023-03-01T09:23:52;28.23;;;15.77;;
38117;SDS011;23928;47.562;7.508;2023-03-01T09:26:19;24.23;;;14.90;;
38117;SDS011;23928;47.562;7.508;2023-03-01T09:28:47;29.70;;;16.13;;
38117;SDS011;23928;47.562;7.508;2023-03-01T09:31:14;31.07;;;14.93;;
38117;SDS011;23928;47.562;7.508;2023-03-01T09:33:41;28.40;;;16.53;;
38117;SDS011;23928;47.562;7.508;2023-03-01T09:36:10;30.53;;;16.53;;
38117;SDS011;23928;47.562;7.508;2023-03-01T09:38:37;25.33;;;14.53;;
38117;SDS011;23928;47.562;7.508;2023-03-01T09:41:08;27.50;;;16.10;;
38117;SDS011;23928;47.562;7.508;2023-03-01T09:44:00;29.00;;;15.47;;
38117;SDS011;23928;47.562;7.508;2023-03-01T09:46:31;28.27;;;16.33;;
38117;SDS011;23928;47.562;7.508;2023-03-01T09:49:05;27.50;;;15.27;;
38117;SDS011;23928;47.562;7.508;2023-03-01T09:51:41;29.57;;;15.23;;
38117;SDS011;23928;47.562;7.508;2023-03-01T09:54:19;29.87;;;15.50;;
38117;SDS011;23928;47.562;7.508;2023-03-01T09:57:33;27.77;;;15.80;;
38117;SDS011;23928;47.562;7.508;2023-03-01T10:02:44;29.33;;;16.90;;
38117;SDS011;23928;47.562;7.508;2023-03-01T10:05:18;26.97;;;15.63;;
38117;SDS011;23928;47.562;7.508;2023-03-01T10:10:54;32.77;;;16.53;;
38117;SDS011;23928;47.562;7.508;2023-03-01T10:19:26;28.40;;;15.83;;
38117;SDS011;23928;47.562;7.508;2023-03-01T10:22:07;31.53;;;16.33;;
38117;SDS011;23928;47.562;7.508;2023-03-01T10:24:48;32.43;;;16.47;;
38117;SDS011;23928;47.562;7.508;2023-03-01T10:32:45;30.07;;;17.43;;
38117;SDS011;23928;47.562;7.508;2023-03-01T10:35:24;34.50;;;18.63;;
38117;SDS011;23928;47.562;7.508;2023-03-01T10:38:05;32.93;;;17.57;;
38117;SDS011;23928;47.562;7.508;2023-03-01T10:40:33;44.70;;;19.30;;
38117;SDS011;23928;47.562;7.508;2023-03-01T10:43:00;31.93;;;16.90;;
38117;SDS011;23928;47.562;7.508;2023-03-01T10:48:03;28.53;;;16.40;;
38117;SDS011;23928;47.562;7.508;2023-03-01T10:50:29;30.83;;;17.60;;
38117;SDS011;23928;47.562;7.508;2023-03-01T10:52:59;30.37;;;16.90;;
38117;SDS011;23928;47.562;7.508;2023-03-01T10:55:27;27.17;;;16.73;;
38117;SDS011;23928;47.562;7.508;2023-03-01T11:03:26;32.87;;;18.00;;
38117;SDS011;23928;47.562;7.508;2023-03-01T11:05:58;36.13;;;19.40;;
38117;SDS011;23928;47.562;7.508;2023-03-01T11:08:31;34.27;;;18.30;;
38117;SDS011;23928;47.562;7.508;2023-03-01T11:11:12;31.70;;;17.63;;
38117;SDS011;23928;47.562;7.508;2023-03-01T11:17:04;33.60;;;17.90;;
38117;SDS011;23928;47.562;7.508;2023-03-01T11:19:36;27.90;;;16.73;;
38117;SDS011;23928;47.562;7.508;2023-03-01T11:22:04;34.17;;;17.47;;
38117;SDS011;23928;47.562;7.508;2023-03-01T11:24:46;27.73;;;17.50;;
38117;SDS011;23928;47.562;7.508;2023-03-01T11:27:18;37.57;;;18.10;;
38117;SDS011;23928;47.562;7.508;2023-03-01T11:32:40;30.37;;;17.20;;
38117;SDS011;23928;47.562;7.508;2023-03-01T11:35:23;29.53;;;17.33;;
38117;SDS011;23928;47.562;7.508;2023-03-01T11:43:37;30.73;;;17.20;;
38117;SDS011;23928;47.562;7.508;2023-03-01T11:56:27;31.40;;;17.67;;
38117;SDS011;23928;47.562;7.508;2023-03-01T12:21:59;28.70;;;17.57;;
38117;SDS011;23928;47.562;7.508;2023-03-01T12:24:07;27.07;;;16.60;;
38117;SDS011;23928;47.562;7.508;2023-03-01T12:26:51;28.90;;;17.07;;
38117;SDS011;23928;47.562;7.508;2023-03-01T12:32:08;29.60;;;17.93;;
38117;SDS011;23928;47.562;7.508;2023-03-01T12:34:55;27.80;;;16.63;;
38117;SDS011;23928;47.562;7.508;2023-03-01T12:54:52;28.00;;;16.17;;
38117;SDS011;23928;47.562;7.508;2023-03-01T13:00:32;27.53;;;16.60;;
38117;SDS011;23928;47.562;7.508;2023-03-01T13:10:58;29.10;;;17.70;;
38117;SDS011;23928;47.562;7.508;2023-03-01T13:13:28;34.27;;;18.20;;
38117;SDS011;23928;47.562;7.508;2023-03-01T13:15:55;30.30;;;17.47;;
38117;SDS011;23928;47.562;7.508;2023-03-01T13:26:19;28.43;;;18.33;;
38117;SDS011;23928;47.562;7.508;2023-03-01T13:28:52;28.80;;;16.50;;
38117;SDS011;23928;47.562;7.508;2023-03-01T13:33:52;31.50;;;17.83;;
38117;SDS011;23928;47.562;7.508;2023-03-01T13:49:48;27.80;;;17.33;;
38117;SDS011;23928;47.562;7.508;2023-03-01T13:52:36;32.93;;;18.20;;
38117;SDS011;23928;47.562;7.508;2023-03-01T13:55:32;35.53;;;19.00;;
38117;SDS011;23928;47.562;7.508;2023-03-01T13:57:59;35.03;;;18.43;;
38117;SDS011;23928;47.562;7.508;2023-03-01T14:00:31;28.80;;;17.30;;
38117;SDS011;23928;47.562;7.508;2023-03-01T14:05:29;29.20;;;18.80;;
38117;SDS011;23928;47.562;7.508;2023-03-01T14:07:55;28.50;;;17.07;;
38117;SDS011;23928;47.562;7.508;2023-03-01T14:10:20;30.40;;;16.57;;
38117;SDS011;23928;47.562;7.508;2023-03-01T14:15:19;28.03;;;16.13;;
38117;SDS011;23928;47.562;7.508;2023-03-01T14:18:03;29.77;;;16.93;;
38117;SDS011;23928;47.562;7.508;2023-03-01T14:20:37;29.43;;;17.27;;
38117;SDS011;23928;47.562;7.508;2023-03-01T14:23:09;27.33;;;16.27;;
38117;SDS011;23928;47.562;7.508;2023-03-01T14:25:38;32.97;;;17.23;;
38117;SDS011;23928;47.562;7.508;2023-03-01T14:28:16;28.93;;;16.80;;
38117;SDS011;23928;47.562;7.508;2023-03-01T14:30:48;27.87;;;15.87;;
38117;SDS011;23928;47.562;7.508;2023-03-01T14:36:01;31.17;;;16.83;;
38117;SDS011;23928;47.562;7.508;2023-03-01T14:38:41;31.00;;;17.63;;
38117;SDS011;23928;47.562;7.508;2023-03-01T14:43:51;32.30;;;17.00;;
38117;SDS011;23928;47.562;7.508;2023-03-01T14:46:40;30.70;;;18.03;;
38117;SDS011;23928;47.562;7.508;2023-03-01T14:49:15;29.20;;;17.87;;
38117;SDS011;23928;47.562;7.508;2023-03-01T14:51:42;26.90;;;15.77;;
38117;SDS011;23928;47.562;7.508;2023-03-01T14:57:14;27.43;;;16.47;;
38117;SDS011;23928;47.562;7.508;2023-03-01T14:59:41;31.70;;;17.50;;
38117;SDS011;23928;47.562;7.508;2023-03-01T15:02:11;26.33;;;16.63;;
38117;SDS011;23928;47.562;7.508;2023-03-01T15:04:48;32.53;;;17.50;;
38117;SDS011;23928;47.562;7.508;2023-03-01T15:07:21;30.20;;;17.53;;
38117;SDS011;23928;47.562;7.508;2023-03-01T15:09:50;26.47;;;16.70;;
38117;SDS011;23928;47.562;7.508;2023-03-01T15:15:00;28.80;;;16.87;;
38117;SDS011;23928;47.562;7.508;2023-03-01T15:19:55;28.93;;;16.60;;
38117;SDS011;23928;47.562;7.508;2023-03-01T15:22:21;30.67;;;17.47;;
38117;SDS011;23928;47.562;7.508;2023-03-01T15:24:49;28.73;;;16.77;;
38117;SDS011;23928;47.562;7.508;2023-03-01T15:27:16;28.77;;;16.07;;
38117;SDS011;23928;47.562;7.508;2023-03-01T15:29:51;28.27;;;16.90;;
38117;SDS011;23928;47.562;7.508;2023-03-01T15:32:34;30.30;;;17.63;;
38117;SDS011;23928;47.562;7.508;2023-03-01T15:38:22;26.13;;;16.00;;
38117;SDS011;23928;47.562;7.508;2023-03-01T15:40:57;31.37;;;16.40;;
38117;SDS011;23928;47.562;7.508;2023-03-01T15:43:41;27.27;;;16.00;;
38117;SDS011;23928;47.562;7.508;2023-03-01T15:49:18;32.03;;;17.20;;
38117;SDS011;23928;47.562;7.508;2023-03-01T15:52:12;26.17;;;16.47;;
38117;SDS011;23928;47.562;7.508;2023-03-01T15:54:46;36.80;;;16.43;;
38117;SDS011;23928;47.562;7.508;2023-03-01T15:57:12;29.47;;;16.77;;
38117;SDS011;23928;47.562;7.508;2023-03-01T15:59:39;28.23;;;17.60;;
38117;SDS011;23928;47.562;7.508;2023-03-01T16:02:09;30.77;;;16.20;;
38117;SDS011;23928;47.562;7.508;2023-03-01T16:04:37;30.93;;;16.53;;
38117;SDS011;23928;47.562;7.508;2023-03-01T16:07:03;27.33;;;15.83;;
38117;SDS011;23928;47.562;7.508;2023-03-01T16:09:30;26.33;;;16.37;;
38117;SDS011;23928;47.562;7.508;2023-03-01T16:11:55;28.00;;;16.77;;
38117;SDS011;23928;47.562;7.508;2023-03-01T16:14:21;30.80;;;16.40;;
38117;SDS011;23928;47.562;7.508;2023-03-01T16:16:47;27.80;;;15.97;;
38117;SDS011;23928;47.562;7.508;2023-03-01T16:19:13;31.87;;;16.30;;
38117;SDS011;23928;47.562;7.508;2023-03-01T16:21:39;28.97;;;16.13;;
38117;SDS011;23928;47.562;7.508;2023-03-01T16:24:07;27.20;;;15.77;;
38117;SDS011;23928;47.562;7.508;2023-03-01T16:26:32;28.60;;;16.37;;
38117;SDS011;23928;47.562;7.508;2023-03-01T16:28:58;29.90;;;16.33;;
38117;SDS011;23928;47.562;7.508;2023-03-01T16:31:24;30.67;;;17.67;;
38117;SDS011;23928;47.562;7.508;2023-03-01T16:33:55;30.37;;;17.97;;
38117;SDS011;23928;47.562;7.508;2023-03-01T16:36:22;26.27;;;16.10;;
38117;SDS011;23928;47.562;7.508;2023-03-01T16:38:53;28.40;;;17.10;;
38117;SDS011;23928;47.562;7.508;2023-03-01T16:41:20;29.00;;;17.23;;
38117;SDS011;23928;47.562;7.508;2023-03-01T16:43:47;29.70;;;17.57;;
38117;SDS011;23928;47.562;7.508;2023-03-01T16:46:14;30.33;;;17.50;;
38117;SDS011;23928;47.562;7.508;2023-03-01T16:48:50;30.93;;;16.60;;
38117;SDS011;23928;47.562;7.508;2023-03-01T16:51:16;29.73;;;16.00;;
38117;SDS011;23928;47.562;7.508;2023-03-01T16:53:42;32.23;;;18.10;;
38117;SDS011;23928;47.562;7.508;2023-03-01T16:56:09;29.00;;;15.90;;
38117;SDS011;23928;47.562;7.508;2023-03-01T16:58:35;29.37;;;16.30;;
38117;SDS011;23928;47.562;7.508;2023-03-01T17:01:06;32.53;;;18.57;;
38117;SDS011;23928;47.562;7.508;2023-03-01T17:03:37;29.20;;;16.73;;
38117;SDS011;23928;47.562;7.508;2023-03-01T17:06:05;29.20;;;16.67;;
38117;SDS011;23928;47.562;7.508;2023-03-01T17:08:32;31.13;;;17.03;;
38117;SDS011;23928;47.562;7.508;2023-03-01T17:11:01;29.37;;;15.63;;
38117;SDS011;23928;47.562;7.508;2023-03-01T17:13:28;29.43;;;16.97;;
38117;SDS011;23928;47.562;7.508;2023-03-01T17:15:54;27.17;;;16.40;;
38117;SDS011;23928;47.562;7.508;2023-03-01T17:18:19;29.27;;;16.87;;
38117;SDS011;23928;47.562;7.508;2023-03-01T17:20:45;25.53;;;16.13;;